createdAt,value
2022-08-12T00:00:50.153Z,22.01
2022-08-12T00:03:20.554Z,21.93
2022-08-12T00:06:04.200Z,21.81
2022-08-12T00:08:09.276Z,21.78
2022-08-12T00:10:35.754Z,21.73
2022-08-12T00:13:02.104Z,21.66
2022-08-12T00:15:28.515Z,21.62
2022-08-12T00:17:54.893Z,21.58
2022-08-12T00:20:21.273Z,21.56
2022-08-12T00:22:53.050Z,21.62
2022-08-12T00:25:14.040Z,21.68
2022-08-12T00:27:43.991Z,21.64
2022-08-12T00:30:06.816Z,21.54
2022-08-12T00:32:54.831Z,21.50
2022-08-12T00:34:59.666Z,21.44
2022-08-12T00:37:26.093Z,21.40
2022-08-12T00:39:52.509Z,21.37
2022-08-12T00:42:18.838Z,21.40
2022-08-12T00:44:45.297Z,21.46
2022-08-12T00:47:24.167Z,21.50
2022-08-12T00:49:38.061Z,21.52
2022-08-12T00:52:04.464Z,21.53
2022-08-12T00:54:30.834Z,21.47
2022-08-12T00:56:57.195Z,21.47
2022-08-12T00:59:23.581Z,21.47
2022-08-12T01:02:02.152Z,21.43
2022-08-12T01:04:16.324Z,21.39
2022-08-12T01:06:42.700Z,21.35
2022-08-12T01:09:09.065Z,21.36
2022-08-12T01:11:35.427Z,21.40
2022-08-12T01:14:01.793Z,21.46
2022-08-12T01:16:28.208Z,21.50
2022-08-12T01:18:54.593Z,21.47
2022-08-12T01:21:20.970Z,21.41
2022-08-12T01:23:47.405Z,21.33
2022-08-12T01:26:13.765Z,21.34
2022-08-12T01:28:40.139Z,21.35
2022-08-12T01:31:06.631Z,21.38
2022-08-12T01:33:32.962Z,21.45
2022-08-12T01:36:07.814Z,21.43
2022-08-12T01:38:29.930Z,21.32
2022-08-12T01:40:52.172Z,21.31
2022-08-12T01:43:18.508Z,21.39
2022-08-12T01:45:44.998Z,21.45
2022-08-12T01:48:11.360Z,21.50
2022-08-12T01:50:37.742Z,21.36
2022-08-12T01:53:04.105Z,21.40
2022-08-12T01:55:30.520Z,21.44
2022-08-12T01:57:58.638Z,21.42
2022-08-12T02:00:35.744Z,21.35
2022-08-12T02:02:49.631Z,21.48
2022-08-12T02:05:15.987Z,21.57
2022-08-12T02:07:42.354Z,21.61
2022-08-12T02:10:08.807Z,21.61
2022-08-12T02:12:35.232Z,21.58
2022-08-12T02:15:01.576Z,21.67
2022-08-12T02:17:55.637Z,21.93
2022-08-12T02:19:54.344Z,21.87
2022-08-12T02:22:20.710Z,21.84
2022-08-12T02:24:47.106Z,21.76
2022-08-12T02:27:13.540Z,21.59
2022-08-12T02:29:39.897Z,21.42
2022-08-12T02:32:06.301Z,21.52
2022-08-12T02:34:32.696Z,21.48
2022-08-12T02:37:02.512Z,21.37
2022-08-12T02:39:25.467Z,21.37
2022-08-12T02:41:51.832Z,21.48
2022-08-12T02:44:18.262Z,21.53
2022-08-12T02:46:44.700Z,21.46
2022-08-12T02:49:12.575Z,21.42
2022-08-12T02:51:37.428Z,21.45
2022-08-12T02:54:05.457Z,21.63
2022-08-12T02:56:30.182Z,21.69
2022-08-12T02:58:56.562Z,21.74
2022-08-12T03:01:22.983Z,21.75
2022-08-12T03:03:49.417Z,21.77
2022-08-12T03:06:15.805Z,21.85
2022-08-12T03:08:42.186Z,22.00
2022-08-12T03:11:12.163Z,22.09
2022-08-12T03:13:35.018Z,22.11
2022-08-12T03:16:01.382Z,22.14
2022-08-12T03:18:28.966Z,22.11
2022-08-12T03:20:54.245Z,22.18
2022-08-12T03:23:30.033Z,22.05
2022-08-12T03:25:47.044Z,21.83
2022-08-12T03:28:23.917Z,21.55
2022-08-12T03:30:39.875Z,21.26
2022-08-12T03:33:06.309Z,21.07
2022-08-12T03:35:40.657Z,20.87
2022-08-12T03:37:59.054Z,20.70
2022-08-12T03:40:25.497Z,20.59
2022-08-12T03:42:51.866Z,20.49
2022-08-12T03:45:18.260Z,20.47
2022-08-12T03:47:44.621Z,20.43
2022-08-12T03:50:10.989Z,20.35
2022-08-12T03:52:37.357Z,20.19
2022-08-12T03:55:03.715Z,20.03
2022-08-12T03:57:30.100Z,20.00
2022-08-12T03:59:56.558Z,19.98
2022-08-12T04:02:22.946Z,20.02
2022-08-12T04:04:49.634Z,19.82
2022-08-12T04:07:15.756Z,19.72
2022-08-12T04:09:42.188Z,19.71
2022-08-12T04:12:08.568Z,19.76
2022-08-12T04:14:35.047Z,19.76
2022-08-12T04:17:01.411Z,19.69
2022-08-12T04:19:27.770Z,19.80
2022-08-12T04:22:02.457Z,19.78
2022-08-12T04:24:20.551Z,19.72
2022-08-12T04:26:46.954Z,19.63
2022-08-12T04:29:13.332Z,19.68
2022-08-12T04:31:39.733Z,19.77
2022-08-12T04:34:06.213Z,19.80
2022-08-12T04:36:32.645Z,19.82
2022-08-12T04:38:59.793Z,19.85
2022-08-12T04:41:25.386Z,19.80
2022-08-12T04:44:00.813Z,19.70
2022-08-12T04:46:22.580Z,19.56
2022-08-12T04:48:44.510Z,19.53
2022-08-12T04:51:13.611Z,19.48
2022-08-12T04:53:37.377Z,19.53
2022-08-12T04:56:03.906Z,19.63
2022-08-12T04:58:30.283Z,19.67
2022-08-12T05:00:56.670Z,19.76
2022-08-12T05:03:23.067Z,19.76
2022-08-12T05:05:49.548Z,19.72
2022-08-12T05:08:15.925Z,19.78
2022-08-12T05:10:42.396Z,19.75
2022-08-12T05:13:08.775Z,19.79
2022-08-12T05:15:36.082Z,19.87
2022-08-12T05:18:02.210Z,20.04
2022-08-12T05:20:28.040Z,20.19
2022-08-12T05:22:57.393Z,20.27
2022-08-12T05:25:21.106Z,20.28
2022-08-12T05:27:58.455Z,20.40
2022-08-12T05:30:13.688Z,20.47
2022-08-12T05:32:40.159Z,20.46
2022-08-12T05:35:06.908Z,20.47
2022-08-12T05:37:32.820Z,20.34
2022-08-12T05:39:59.866Z,20.33
2022-08-12T05:42:33.740Z,20.29
2022-08-12T05:44:52.038Z,20.35
2022-08-12T05:47:18.439Z,20.41
2022-08-12T05:49:44.807Z,20.46
2022-08-12T05:52:11.170Z,20.46
2022-08-12T05:54:56.634Z,20.45
2022-08-12T05:57:04.018Z,20.47
2022-08-12T05:59:30.413Z,20.55
2022-08-12T06:02:08.880Z,20.72
2022-08-12T06:04:23.215Z,20.80
2022-08-12T06:06:49.640Z,20.95
2022-08-12T06:09:15.997Z,21.10
2022-08-12T06:11:54.038Z,21.18
2022-08-12T06:14:11.858Z,21.18
2022-08-12T06:16:35.379Z,21.24
2022-08-12T06:19:01.768Z,21.36
2022-08-12T06:21:28.146Z,21.43
2022-08-12T06:23:54.518Z,21.47
2022-08-12T06:26:20.870Z,21.49
2022-08-12T06:28:47.337Z,21.51
2022-08-12T06:31:28.988Z,21.61
2022-08-12T06:33:55.298Z,21.62
2022-08-12T06:36:06.537Z,21.65
2022-08-12T06:38:33.102Z,21.69
2022-08-12T06:40:59.479Z,21.74
2022-08-12T06:43:25.846Z,21.90
2022-08-12T06:45:52.267Z,22.06
2022-08-12T06:48:18.699Z,22.08
2022-08-12T06:50:45.175Z,22.37
2022-08-12T06:53:11.599Z,22.57
2022-08-12T06:55:37.904Z,22.67
2022-08-12T06:58:10.004Z,23.09
2022-08-12T07:00:32.480Z,23.68
2022-08-12T07:02:56.937Z,23.80
2022-08-12T07:05:23.320Z,23.50
2022-08-12T07:07:49.700Z,23.23
2022-08-12T07:10:16.086Z,23.24
2022-08-12T07:12:42.710Z,23.37
2022-08-12T07:15:08.870Z,23.50
2022-08-12T07:17:35.247Z,23.41
2022-08-12T07:20:04.497Z,23.59
2022-08-12T07:22:27.994Z,23.95
2022-08-12T07:24:54.354Z,24.23
2022-08-12T07:27:20.724Z,24.11
2022-08-12T07:29:58.160Z,23.96
2022-08-12T07:32:13.714Z,23.95
2022-08-12T07:34:40.228Z,23.82
2022-08-12T07:37:06.574Z,24.79
2022-08-12T07:39:32.988Z,26.41
2022-08-12T07:41:59.361Z,27.34
2022-08-12T07:44:26.062Z,27.09
2022-08-12T07:46:52.479Z,27.37
2022-08-12T07:49:18.881Z,27.83
2022-08-12T07:51:45.244Z,27.81
2022-08-12T07:54:11.680Z,27.84
2022-08-12T07:56:38.053Z,27.61
2022-08-12T07:59:04.437Z,27.16
2022-08-12T08:01:30.828Z,26.85
2022-08-12T08:03:57.227Z,26.69
2022-08-12T08:06:23.616Z,26.54
2022-08-12T08:08:50.015Z,26.46
2022-08-12T08:11:16.379Z,26.45
2022-08-12T08:13:42.771Z,27.98
2022-08-12T08:16:09.134Z,28.64
2022-08-12T08:18:35.594Z,28.85
2022-08-12T08:21:02.002Z,28.32
2022-08-12T08:23:34.972Z,27.73
2022-08-12T08:25:54.793Z,27.51
2022-08-12T08:28:21.153Z,28.16
2022-08-12T08:30:47.558Z,28.65
2022-08-12T08:33:20.113Z,28.27
2022-08-12T08:35:47.117Z,28.24
2022-08-12T08:38:06.751Z,27.51
2022-08-12T08:40:33.147Z,27.78
2022-08-12T08:42:59.523Z,27.70
2022-08-12T08:45:25.911Z,27.17
2022-08-12T08:47:52.273Z,26.84
2022-08-12T08:50:18.756Z,26.83
2022-08-12T08:52:45.042Z,26.68
2022-08-12T08:55:11.486Z,28.06
2022-08-12T08:57:43.440Z,30.46
2022-08-12T09:00:04.352Z,31.17
2022-08-12T09:02:30.722Z,29.95
2022-08-12T09:05:11.866Z,28.88
2022-08-12T09:07:51.786Z,28.27
2022-08-12T09:10:02.546Z,27.74
2022-08-12T09:12:16.385Z,27.79
2022-08-12T09:14:42.885Z,28.72
2022-08-12T09:17:09.280Z,29.71
2022-08-12T09:19:35.705Z,30.13
2022-08-12T09:22:02.092Z,29.44
2022-08-12T09:24:28.514Z,28.68
2022-08-12T09:26:54.905Z,28.28
2022-08-12T09:30:11.012Z,28.90
2022-08-12T09:32:03.373Z,30.75
2022-08-12T09:34:28.681Z,31.15
2022-08-12T09:36:58.041Z,30.93
2022-08-12T09:40:02.543Z,30.93
2022-08-12T09:42:32.892Z,30.11
2022-08-12T09:44:01.007Z,29.54
2022-08-12T09:46:26.211Z,28.93
2022-08-12T09:48:56.424Z,28.18
2022-08-12T09:51:22.353Z,27.84
2022-08-12T09:53:45.800Z,27.82
2022-08-12T09:56:57.945Z,27.90
2022-08-12T09:58:57.694Z,28.10
2022-08-12T10:01:06.578Z,28.41
2022-08-12T10:03:31.856Z,28.79
2022-08-12T10:06:26.983Z,28.96
2022-08-12T10:08:23.642Z,28.43
2022-08-12T10:10:50.006Z,28.48
2022-08-12T10:13:33.840Z,28.36
2022-08-12T10:16:00.723Z,28.58
2022-08-12T10:18:09.173Z,29.16
2022-08-12T10:20:35.508Z,31.22
2022-08-12T10:23:02.000Z,31.42
2022-08-12T10:26:18.587Z,29.75
2022-08-12T10:28:03.988Z,29.27
2022-08-12T10:30:40.629Z,29.11
2022-08-12T10:32:56.629Z,29.29
2022-08-12T10:35:13.841Z,29.08
2022-08-12T10:38:39.284Z,28.96
2022-08-12T10:40:11.528Z,28.61
2022-08-12T10:42:32.990Z,28.79
2022-08-12T10:44:59.445Z,28.89
2022-08-12T10:48:07.359Z,29.16
2022-08-12T10:50:03.009Z,29.12
2022-08-12T10:52:34.223Z,29.28
2022-08-12T10:54:45.068Z,29.18
2022-08-12T10:57:17.950Z,28.95
2022-08-12T11:00:29.457Z,28.76
2022-08-12T11:04:22.495Z,28.38
2022-08-12T11:04:41.475Z,28.58
2022-08-12T11:07:10.114Z,28.70
2022-08-12T11:09:55.688Z,28.85
2022-08-12T11:12:35.472Z,28.64
2022-08-12T11:14:49.336Z,28.44
2022-08-12T11:16:42.502Z,28.21
2022-08-12T11:19:08.897Z,28.18
2022-08-12T11:21:57.596Z,28.21
2022-08-12T11:24:01.932Z,28.26
2022-08-12T11:26:28.015Z,28.26
2022-08-12T11:29:05.400Z,28.24
2022-08-12T11:31:20.762Z,28.32
2022-08-12T11:34:04.503Z,28.11
2022-08-12T11:36:16.571Z,28.14
2022-08-12T11:38:43.078Z,28.19
2022-08-12T11:41:09.469Z,28.23
2022-08-12T11:43:50.588Z,28.19
2022-08-12T11:46:02.376Z,28.14
2022-08-12T11:48:28.811Z,28.22
2022-08-12T11:50:55.180Z,28.38
2022-08-12T11:53:57.522Z,28.42
2022-08-12T11:55:47.939Z,28.53
2022-08-12T11:59:31.368Z,28.59
2022-08-12T12:03:07.144Z,28.54
2022-08-12T12:05:41.738Z,28.80
2022-08-12T12:08:38.016Z,28.87
2022-08-12T12:10:26.304Z,28.92
2022-08-12T12:12:52.664Z,28.72
2022-08-12T12:15:25.350Z,28.51
2022-08-12T12:17:45.418Z,28.25
2022-08-12T12:20:12.396Z,28.32
2022-08-12T12:22:38.276Z,28.36
2022-08-12T12:25:13.193Z,28.47
2022-08-12T12:28:03.750Z,28.70
2022-08-12T12:30:19.552Z,28.58
2022-08-12T12:32:29.387Z,28.39
2022-08-12T12:35:14.893Z,28.40
2022-08-12T12:37:17.475Z,28.46
2022-08-12T12:39:55.633Z,28.48
2022-08-12T12:42:44.035Z,28.68
2022-08-12T12:44:41.875Z,29.07
2022-08-12T12:47:02.157Z,29.03
2022-08-12T12:49:28.521Z,29.16
2022-08-12T12:52:18.383Z,29.12
2022-08-12T12:54:24.478Z,29.19
2022-08-12T12:56:47.732Z,28.83
2022-08-12T12:59:54.839Z,28.82
2022-08-12T13:01:42.081Z,28.65
2022-08-12T13:04:06.962Z,28.78
2022-08-12T13:06:34.317Z,29.29
2022-08-12T13:09:02.439Z,29.30
2022-08-12T13:11:26.092Z,28.87
2022-08-12T13:14:08.760Z,28.78
2022-08-12T13:16:20.692Z,28.09
2022-08-12T13:18:45.326Z,27.49
2022-08-12T13:21:15.643Z,27.39
2022-08-12T13:23:38.073Z,27.63
2022-08-12T13:26:04.527Z,27.65
2022-08-12T13:28:30.961Z,27.65
2022-08-12T13:30:57.337Z,27.28
2022-08-12T13:33:23.791Z,27.23
2022-08-12T13:36:05.021Z,27.40
2022-08-12T13:38:26.650Z,27.46
2022-08-12T13:40:42.960Z,27.42
2022-08-12T13:43:09.324Z,27.32
2022-08-12T13:45:36.705Z,27.09
2022-08-12T13:48:02.211Z,26.69
2022-08-12T13:50:28.441Z,26.76
2022-08-12T13:52:54.802Z,26.63
2022-08-12T13:55:21.188Z,26.68
2022-08-12T13:57:47.652Z,26.73
2022-08-12T14:00:14.022Z,26.73
2022-08-12T14:02:40.654Z,26.79
2022-08-12T14:05:37.470Z,26.81
2022-08-12T14:07:48.845Z,26.56
2022-08-12T14:09:59.878Z,26.76
2022-08-12T14:12:26.246Z,26.79
2022-08-12T14:14:52.615Z,26.38
2022-08-12T14:17:19.857Z,26.23
2022-08-12T14:19:52.962Z,25.95
2022-08-12T14:22:11.798Z,25.92
2022-08-12T14:24:40.913Z,25.90
2022-08-12T14:27:09.047Z,25.84
2022-08-12T14:29:38.136Z,25.87
2022-08-12T14:31:57.399Z,25.92
2022-08-12T14:34:28.231Z,25.82
2022-08-12T14:36:50.272Z,25.87
2022-08-12T14:39:16.743Z,25.91
2022-08-12T14:41:48.405Z,25.94
2022-08-12T14:44:57.540Z,25.88
2022-08-12T14:46:35.830Z,25.79
2022-08-12T14:50:01.341Z,25.82
2022-08-12T14:52:54.092Z,26.03
2022-08-12T14:54:49.923Z,26.05
2022-08-12T14:58:51.843Z,26.30
2022-08-12T15:01:14.188Z,26.36
2022-08-12T15:03:52.790Z,26.38
2022-08-12T15:06:39.094Z,26.38
2022-08-12T15:08:33.491Z,26.44
2022-08-12T15:10:59.851Z,26.48
2022-08-12T15:13:26.254Z,26.42
2022-08-12T15:15:52.615Z,26.39
2022-08-12T15:18:21.645Z,26.45
2022-08-12T15:20:45.446Z,26.48
2022-08-12T15:23:17.705Z,26.53
2022-08-12T15:25:39.945Z,26.51
2022-08-12T15:28:06.022Z,26.59
2022-08-12T15:30:30.974Z,26.61
2022-08-12T15:32:57.424Z,26.79
2022-08-12T15:35:23.839Z,26.83
2022-08-12T15:38:09.387Z,26.82
2022-08-12T15:40:16.674Z,26.91
2022-08-12T15:42:46.771Z,26.78
2022-08-12T15:45:09.469Z,26.69
2022-08-12T15:47:49.626Z,26.60
2022-08-12T15:50:02.256Z,26.48
2022-08-12T15:52:28.670Z,26.42
2022-08-12T15:54:54.980Z,26.39
2022-08-12T15:57:21.429Z,26.35
2022-08-12T16:00:00.541Z,26.42
2022-08-12T16:02:14.296Z,26.45
2022-08-12T16:04:40.678Z,26.43
2022-08-12T16:07:10.001Z,26.36
2022-08-12T16:09:56.331Z,26.29
2022-08-12T16:11:59.815Z,26.33
2022-08-12T16:14:26.188Z,26.36
2022-08-12T16:16:52.550Z,26.33
2022-08-12T16:20:03.198Z,26.23
2022-08-12T16:21:52.164Z,26.19
2022-08-12T16:24:11.730Z,26.20
2022-08-12T16:26:38.117Z,26.18
2022-08-12T16:29:15.124Z,26.14
2022-08-12T16:31:30.979Z,26.10
2022-08-12T16:34:00.484Z,26.06
2022-08-12T16:36:23.709Z,26.00
2022-08-12T16:38:50.072Z,25.98
2022-08-12T16:41:16.437Z,25.96
2022-08-12T16:43:42.859Z,25.90
2022-08-12T16:46:31.492Z,25.89
2022-08-12T16:48:36.228Z,25.88
2022-08-12T16:51:02.035Z,25.85
2022-08-12T16:53:30.663Z,25.83
2022-08-12T16:55:54.777Z,25.77
2022-08-12T16:58:28.224Z,25.76
2022-08-12T17:00:48.167Z,25.75
2022-08-12T17:03:14.027Z,25.73
2022-08-12T17:05:40.586Z,25.69
2022-08-12T17:08:06.906Z,25.64
2022-08-12T17:10:35.497Z,25.63
2022-08-12T17:12:59.725Z,25.61
2022-08-12T17:15:57.838Z,25.55
2022-08-12T17:18:39.197Z,25.47
2022-08-12T17:20:35.216Z,25.41
2022-08-12T17:22:45.231Z,25.37
2022-08-12T17:25:14.729Z,25.32
2022-08-12T17:27:37.974Z,25.26
2022-08-12T17:30:05.619Z,25.26
2022-08-12T17:32:30.727Z,25.22
2022-08-12T17:34:57.212Z,25.20
2022-08-12T17:37:23.645Z,25.16
2022-08-12T17:40:10.088Z,25.11
2022-08-12T17:42:32.865Z,25.06
2022-08-12T17:44:42.877Z,25.00
2022-08-12T17:47:09.226Z,24.97
2022-08-12T17:50:02.076Z,24.92
2022-08-12T17:52:03.146Z,24.86
2022-08-12T17:54:28.362Z,24.83
2022-08-12T17:56:54.797Z,24.79
2022-08-12T17:59:48.249Z,24.76
2022-08-12T18:01:47.653Z,24.72
2022-08-12T18:04:21.979Z,24.63
2022-08-12T18:06:40.378Z,24.53
2022-08-12T18:09:08.921Z,24.44
2022-08-12T18:12:03.278Z,24.36
2022-08-12T18:13:59.615Z,24.28
2022-08-12T18:16:26.033Z,24.21
2022-08-12T18:18:59.653Z,24.19
2022-08-12T18:21:18.824Z,24.17
2022-08-12T18:23:50.900Z,24.17
2022-08-12T18:26:15.970Z,24.20
2022-08-12T18:28:38.054Z,24.21
2022-08-12T18:31:04.517Z,24.21
2022-08-12T18:33:30.889Z,24.23
2022-08-12T18:35:58.413Z,24.21
2022-08-12T18:38:24.541Z,24.21
2022-08-12T18:40:50.035Z,24.07
2022-08-12T18:43:16.420Z,24.05
2022-08-12T18:45:47.331Z,24.04
2022-08-12T18:48:09.164Z,24.00
2022-08-12T18:50:49.185Z,23.98
2022-08-12T18:53:01.885Z,23.95
2022-08-12T18:55:37.404Z,23.93
2022-08-12T18:58:08.321Z,23.92
2022-08-12T19:00:22.056Z,23.89
2022-08-12T19:02:47.856Z,23.85
2022-08-12T19:05:13.829Z,23.79
2022-08-12T19:07:49.785Z,23.71
2022-08-12T19:10:06.664Z,23.59
2022-08-12T19:12:33.048Z,23.61
2022-08-12T19:15:04.180Z,23.67
2022-08-12T19:17:25.916Z,23.65
2022-08-12T19:19:52.295Z,23.58
2022-08-12T19:22:29.038Z,23.47
2022-08-12T19:24:45.162Z,23.36
2022-08-12T19:27:11.587Z,23.32
2022-08-12T19:29:43.906Z,23.23
2022-08-12T19:32:04.363Z,23.34
2022-08-12T19:35:32.957Z,23.23
2022-08-12T19:36:57.223Z,23.24
2022-08-12T19:39:25.303Z,23.14
2022-08-12T19:42:00.687Z,23.10
2022-08-12T19:44:18.621Z,23.05
2022-08-12T19:46:42.817Z,22.97
2022-08-12T19:49:09.197Z,22.94
2022-08-12T19:51:35.731Z,22.88
2022-08-12T19:54:01.965Z,22.79
2022-08-12T19:56:28.356Z,22.70
2022-08-12T19:58:54.808Z,22.58
2022-08-12T20:01:21.248Z,22.52
2022-08-12T20:03:47.743Z,22.44
2022-08-12T20:06:21.908Z,22.44
2022-08-12T20:08:40.422Z,22.38
2022-08-12T20:12:08.789Z,22.34
2022-08-12T20:13:37.623Z,22.39
2022-08-12T20:15:59.996Z,22.42
2022-08-12T20:18:53.307Z,22.53
2022-08-12T20:20:52.303Z,22.54
2022-08-12T20:23:18.736Z,22.54
2022-08-12T20:25:53.495Z,22.51
2022-08-12T20:28:11.497Z,22.43
2022-08-12T20:30:53.415Z,22.36
2022-08-12T20:33:04.252Z,22.27
2022-08-12T20:36:06.002Z,22.20
2022-08-12T20:38:07.325Z,22.23
2022-08-12T20:40:23.406Z,22.27
2022-08-12T20:42:50.521Z,22.23
2022-08-12T20:45:16.124Z,22.22
2022-08-12T20:47:46.885Z,22.20
2022-08-12T20:50:08.932Z,22.14
2022-08-12T20:52:35.420Z,22.11
2022-08-12T20:55:01.852Z,22.11
2022-08-12T20:57:37.494Z,22.03
2022-08-12T20:59:54.615Z,21.91
2022-08-12T21:02:24.392Z,21.81
2022-08-12T21:04:47.381Z,21.77
2022-08-12T21:07:14.432Z,21.79
2022-08-12T21:09:40.634Z,21.92
2022-08-12T21:12:06.711Z,22.12
2022-08-12T21:14:39.840Z,22.20
2022-08-12T21:16:59.463Z,22.19
2022-08-12T21:19:25.837Z,22.19
2022-08-12T21:21:52.199Z,22.19
2022-08-12T21:24:18.639Z,22.22
2022-08-12T21:26:53.233Z,22.33
2022-08-12T21:29:11.402Z,22.36
2022-08-12T21:32:36.668Z,22.35
2022-08-12T21:34:07.280Z,22.37
2022-08-12T21:36:32.241Z,22.45
2022-08-12T21:38:57.136Z,22.40
2022-08-12T21:41:23.519Z,22.34
2022-08-12T21:43:50.000Z,22.42
2022-08-12T21:46:34.751Z,22.38
2022-08-12T21:48:42.764Z,22.23
2022-08-12T21:51:23.200Z,22.16
2022-08-12T21:54:07.583Z,22.19
2022-08-12T21:56:01.909Z,22.19
2022-08-12T21:58:28.274Z,22.21
2022-08-12T22:00:54.749Z,22.12
2022-08-12T22:04:02.781Z,22.06
2022-08-12T22:05:47.518Z,22.04
2022-08-12T22:08:13.907Z,22.04
2022-08-12T22:10:40.273Z,22.03
2022-08-12T22:13:06.642Z,22.02
2022-08-12T22:15:33.116Z,22.03
2022-08-12T22:17:59.499Z,21.99
2022-08-12T22:20:29.303Z,21.92
2022-08-12T22:22:56.873Z,21.86
2022-08-12T22:25:20.283Z,21.85
2022-08-12T22:27:45.056Z,21.80
2022-08-12T22:30:16.719Z,21.77
2022-08-12T22:32:37.778Z,21.71
2022-08-12T22:35:04.174Z,21.66
2022-08-12T22:37:30.606Z,21.61
2022-08-12T22:39:57.087Z,21.60
2022-08-12T22:42:23.427Z,21.59
2022-08-12T22:44:52.725Z,21.60
2022-08-12T22:47:16.238Z,21.63
2022-08-12T22:49:53.072Z,21.61
2022-08-12T22:52:09.029Z,21.58
2022-08-12T22:54:37.565Z,21.58
2022-08-12T22:57:01.865Z,21.55
2022-08-12T22:59:28.291Z,21.39
2022-08-12T23:02:01.988Z,21.34
2022-08-12T23:04:27.652Z,21.34
2022-08-12T23:06:47.435Z,21.19
2022-08-12T23:09:13.824Z,20.95
2022-08-12T23:11:40.999Z,20.84
2022-08-12T23:14:06.658Z,20.78
2022-08-12T23:16:33.519Z,20.70
2022-08-12T23:18:59.678Z,20.68
2022-08-12T23:21:25.817Z,20.69
2022-08-12T23:24:09.450Z,20.74
2022-08-12T23:26:18.654Z,20.88
2022-08-12T23:28:45.010Z,20.92
2022-08-12T23:31:11.393Z,20.99
2022-08-12T23:34:00.051Z,21.01
2022-08-12T23:36:04.282Z,21.01
2022-08-12T23:38:32.249Z,21.05
2022-08-12T23:40:57.076Z,21.07
2022-08-12T23:43:23.393Z,21.10
2022-08-12T23:46:01.110Z,21.14
2022-08-12T23:48:22.950Z,21.16
2022-08-12T23:50:42.539Z,21.18
2022-08-12T23:53:22.700Z,21.16
2022-08-12T23:55:35.433Z,21.16
2022-08-12T23:58:22.581Z,21.17
